Kinston Regional Jetport At Stallings Field


Codes: KISO/ISO
Name: Kinston Regional Jetport At Stallings Field
City: Kinston
Country: United States
Elevation: 93 ft.
Website:
Wikipedia:

Photos at Kinston Regional Jetport At Stallings Field


   Photos courtesy of SpottingLog. You can add your own sightings and photos by signing up for a free trial today.



UR-82072, 20-Jun-2023
© Christina Martin


Weather at Kinston Regional Jetport At Stallings Field


Time (UTC)DescriptionTempratureWindCloud coverageVisibilityPressureHumidity
13-Jun-2024 03:00Clear Sky24°C7 mph, SE0%10000m1017hPa73%
13-Jun-2024 06:00Scattered Clouds22°C7 mph, SE33%10000m1017hPa78%
13-Jun-2024 09:00Broken Clouds21°C4 mph, SE67%10000m1016hPa86%
13-Jun-2024 12:00Overcast Clouds22°C4 mph, NE100%10000m1017hPa80%
13-Jun-2024 15:00Overcast Clouds27°C9 mph, E100%10000m1017hPa55%
13-Jun-2024 18:00Overcast Clouds30°C9 mph, E99%10000m1016hPa41%
13-Jun-2024 21:00Broken Clouds30°C11 mph, E66%10000m1015hPa40%
14-Jun-2024 00:00Broken Clouds24°C9 mph, E74%10000m1015hPa65%
14-Jun-2024 03:00Overcast Clouds21°C7 mph, E100%10000m1016hPa80%
14-Jun-2024 06:00Overcast Clouds20°C4 mph, E87%10000m1014hPa91%
14-Jun-2024 09:00Scattered Clouds20°C4 mph, N46%10000m1014hPa98%
14-Jun-2024 12:00Scattered Clouds23°C4 mph, N30%10000m1014hPa87%
14-Jun-2024 15:00Few Clouds28°C7 mph, NE22%10000m1013hPa62%
14-Jun-2024 18:00Light Rain32°C7 mph, N16%10000m1011hPa40%
14-Jun-2024 21:00Clear Sky33°C7 mph, N0%10000m1010hPa34%
15-Jun-2024 00:00Clear Sky28°C2 mph, SE0%10000m1010hPa52%
15-Jun-2024 03:00Few Clouds24°C7 mph, S14%10000m1011hPa70%
15-Jun-2024 06:00Clear Sky22°C7 mph, W6%10000m1012hPa76%
15-Jun-2024 09:00Clear Sky22°C4 mph, N8%10000m1012hPa66%
15-Jun-2024 12:00Few Clouds24°C11 mph, N20%10000m1014hPa68%
15-Jun-2024 15:00Clear Sky27°C11 mph, N4%10000m1015hPa58%
15-Jun-2024 18:00Clear Sky30°C9 mph, NE2%10000m1015hPa45%
15-Jun-2024 21:00Clear Sky31°C9 mph, NE8%10000m1015hPa39%
16-Jun-2024 00:00Scattered Clouds25°C7 mph, NE48%10000m1017hPa56%
16-Jun-2024 03:00Scattered Clouds20°C9 mph, E47%10000m1019hPa77%
16-Jun-2024 06:00Broken Clouds18°C7 mph, E57%10000m1019hPa91%
16-Jun-2024 09:00Broken Clouds17°C4 mph, E84%10000m1020hPa92%
16-Jun-2024 12:00Broken Clouds21°C7 mph, NE79%10000m1022hPa73%
16-Jun-2024 15:00Scattered Clouds27°C9 mph, E34%10000m1022hPa42%
16-Jun-2024 18:00Scattered Clouds30°C9 mph, E44%10000m1021hPa32%
16-Jun-2024 21:00Scattered Clouds30°C9 mph, E26%10000m1020hPa35%
17-Jun-2024 00:00Scattered Clouds24°C9 mph, SE40%10000m1021hPa58%
17-Jun-2024 03:00Overcast Clouds20°C7 mph, SE89%10000m1022hPa77%
17-Jun-2024 06:00Broken Clouds19°C4 mph, SE81%10000m1022hPa83%
17-Jun-2024 09:00Scattered Clouds18°C4 mph, SE42%10000m1022hPa88%
17-Jun-2024 12:00Broken Clouds22°C4 mph, SE54%10000m1023hPa73%
17-Jun-2024 15:00Broken Clouds28°C7 mph, SE54%10000m1022hPa50%
17-Jun-2024 18:00Scattered Clouds31°C7 mph, SE33%10000m1021hPa37%
17-Jun-2024 21:00Clear Sky31°C13 mph, S7%10000m1019hPa39%
18-Jun-2024 00:00Clear Sky24°C11 mph, S9%10000m1020hPa60%